Hovedside
METAR-TAF:

METAR-TAF

Lufthavner :

Adrar, Algerie

breddegrad: 27-53N, lengdegrad: 000-17W, høyde over havet: 263 m

Gjeldene værobservasjon

Denne rapporten ble laget for 48 minutter siden, klokken 15:00 UTC
Vind 12 kt fra Sør-sørøst
Temperatur 23°C
Luftfuktighet 29%
Trykk 1013 hPa
Sikt 10 km eller mer
ingen skyer under 1500 m og ingen bygeskyer

METAR: DAUA 051500Z 16012KT CAVOK 23/04 Q1013

Tid: 16:48 (15:48 UTC)

Varsel

Denne rapporten ble laget for 4 timer og 48 minutter siden, klokken 11:00 UTC
Varsel gyldig fra 05. klokken 12 UTC til 06. klokken 12 UTC
Vind 12 kt fra Sørøst
Sikt 10 km eller mer
ingen skyer under 1500 m og ingen bygeskyer
Blir
fra 05. klokken 20 UTC til 05. klokken 23 UTC
Vind 2 kt fra skiftende retning

TAF: DAUA 051100Z 0512/0612 14012KT CAVOK BECMG 0520/0523 VRB02KT

Værobservasjoner og værvarsel for over 4000 flyplasser (METAR- og TAF-rapporter).

Tilgjengelige stasjoner er representert av de røde og gule prikkene på kartet.

Hold musepekeren over prikken for å se navnet på stasjonen.

Klikk så for å se værobservasjoner og -varsler.

For å forandre kartet kan du klikke på den grønne knappen med svart kryss for å zoome inn, på den grønne knappen med strek for å zoome ut, eller på de grønne pilene for å se tilstøtende kart.


METAR-TAF: